sensor_id;sensor_type;location;lat;lon;timestamp;temperature;humidity
37086;DHT22;23001;45.952;12.676;2023-02-03T00:00:58;2.40;99.90
37086;DHT22;23001;45.952;12.676;2023-02-03T00:03:23;2.40;99.90
37086;DHT22;23001;45.952;12.676;2023-02-03T00:05:49;2.40;99.90
37086;DHT22;23001;45.952;12.676;2023-02-03T00:08:16;2.30;99.90
37086;DHT22;23001;45.952;12.676;2023-02-03T00:10:43;2.30;99.90
37086;DHT22;23001;45.952;12.676;2023-02-03T00:13:08;2.40;99.90
37086;DHT22;23001;45.952;12.676;2023-02-03T00:15:34;2.40;99.90
37086;DHT22;23001;45.952;12.676;2023-02-03T00:18:00;2.50;99.90
37086;DHT22;23001;45.952;12.676;2023-02-03T00:20:25;2.40;99.90
37086;DHT22;23001;45.952;12.676;2023-02-03T00:22:51;2.40;99.90
37086;DHT22;23001;45.952;12.676;2023-02-03T00:25:17;2.30;99.90
37086;DHT22;23001;45.952;12.676;2023-02-03T00:27:43;2.20;99.90
37086;DHT22;23001;45.952;12.676;2023-02-03T00:30:10;2.40;99.90
37086;DHT22;23001;45.952;12.676;2023-02-03T00:32:37;2.50;99.90
37086;DHT22;23001;45.952;12.676;2023-02-03T00:35:03;2.40;99.90
37086;DHT22;23001;45.952;12.676;2023-02-03T00:37:29;2.40;99.90
37086;DHT22;23001;45.952;12.676;2023-02-03T00:39:54;2.40;99.90
37086;DHT22;23001;45.952;12.676;2023-02-03T00:42:20;2.30;99.90
37086;DHT22;23001;45.952;12.676;2023-02-03T00:44:46;2.20;99.90
37086;DHT22;23001;45.952;12.676;2023-02-03T00:47:12;2.20;99.90
37086;DHT22;23001;45.952;12.676;2023-02-03T00:49:37;2.30;99.90
37086;DHT22;23001;45.952;12.676;2023-02-03T00:52:03;2.30;99.90
37086;DHT22;23001;45.952;12.676;2023-02-03T00:54:29;2.30;99.90
37086;DHT22;23001;45.952;12.676;2023-02-03T00:56:54;2.30;99.90
37086;DHT22;23001;45.952;12.676;2023-02-03T00:59:20;2.20;99.90
37086;DHT22;23001;45.952;12.676;2023-02-03T01:01:46;2.10;99.90
37086;DHT22;23001;45.952;12.676;2023-02-03T01:04:14;2.00;99.90
37086;DHT22;23001;45.952;12.676;2023-02-03T01:06:39;2.00;99.90
37086;DHT22;23001;45.952;12.676;2023-02-03T01:09:05;2.10;99.90
37086;DHT22;23001;45.952;12.676;2023-02-03T01:11:31;2.10;99.90
37086;DHT22;23001;45.952;12.676;2023-02-03T01:13:57;2.00;99.90
37086;DHT22;23001;45.952;12.676;2023-02-03T01:16:27;2.00;99.90
37086;DHT22;23001;45.952;12.676;2023-02-03T01:18:54;2.00;99.90
37086;DHT22;23001;45.952;12.676;2023-02-03T01:21:22;2.00;99.90
37086;DHT22;23001;45.952;12.676;2023-02-03T01:23:50;2.00;99.90
37086;DHT22;23001;45.952;12.676;2023-02-03T01:26:18;2.00;99.90
37086;DHT22;23001;45.952;12.676;2023-02-03T01:28:53;2.00;99.90
37086;DHT22;23001;45.952;12.676;2023-02-03T01:31:25;2.00;99.90
37086;DHT22;23001;45.952;12.676;2023-02-03T01:33:52;1.90;99.90
37086;DHT22;23001;45.952;12.676;2023-02-03T01:36:20;1.90;99.90
37086;DHT22;23001;45.952;12.676;2023-02-03T01:38:46;1.90;99.90
37086;DHT22;23001;45.952;12.676;2023-02-03T01:41:15;1.90;99.90
37086;DHT22;23001;45.952;12.676;2023-02-03T01:43:44;1.90;99.90
37086;DHT22;23001;45.952;12.676;2023-02-03T01:46:37;1.80;99.90
37086;DHT22;23001;45.952;12.676;2023-02-03T01:49:17;1.80;99.90
37086;DHT22;23001;45.952;12.676;2023-02-03T01:51:44;1.90;99.90
37086;DHT22;23001;45.952;12.676;2023-02-03T01:54:15;2.00;99.90
37086;DHT22;23001;45.952;12.676;2023-02-03T01:56:47;2.10;99.90
37086;DHT22;23001;45.952;12.676;2023-02-03T01:59:15;2.10;99.90
37086;DHT22;23001;45.952;12.676;2023-02-03T02:01:42;2.30;99.90
37086;DHT22;23001;45.952;12.676;2023-02-03T02:04:08;2.20;99.90
37086;DHT22;23001;45.952;12.676;2023-02-03T02:06:34;2.10;99.90
37086;DHT22;23001;45.952;12.676;2023-02-03T02:09:01;2.10;99.90
37086;DHT22;23001;45.952;12.676;2023-02-03T02:11:27;2.20;99.90
37086;DHT22;23001;45.952;12.676;2023-02-03T02:13:55;2.20;99.90
37086;DHT22;23001;45.952;12.676;2023-02-03T02:26:02;2.10;99.90
37086;DHT22;23001;45.952;12.676;2023-02-03T02:33:42;2.10;99.90
37086;DHT22;23001;45.952;12.676;2023-02-03T02:44:10;2.20;99.90
37086;DHT22;23001;45.952;12.676;2023-02-03T02:46:39;2.20;99.90
37086;DHT22;23001;45.952;12.676;2023-02-03T02:52:13;2.30;99.90
37086;DHT22;23001;45.952;12.676;2023-02-03T02:54:41;2.30;99.90
37086;DHT22;23001;45.952;12.676;2023-02-03T02:57:10;2.30;99.90
37086;DHT22;23001;45.952;12.676;2023-02-03T02:59:37;2.20;99.90
37086;DHT22;23001;45.952;12.676;2023-02-03T03:02:03;2.10;99.90
37086;DHT22;23001;45.952;12.676;2023-02-03T03:04:30;2.10;99.90
37086;DHT22;23001;45.952;12.676;2023-02-03T03:07:06;2.10;99.90
37086;DHT22;23001;45.952;12.676;2023-02-03T03:09:38;2.10;99.90
37086;DHT22;23001;45.952;12.676;2023-02-03T03:12:12;2.10;99.90
37086;DHT22;23001;45.952;12.676;2023-02-03T03:14:43;2.10;99.90
37086;DHT22;23001;45.952;12.676;2023-02-03T03:17:13;2.10;99.90
37086;DHT22;23001;45.952;12.676;2023-02-03T03:19:45;2.10;99.90
37086;DHT22;23001;45.952;12.676;2023-02-03T03:22:15;2.10;99.90
37086;DHT22;23001;45.952;12.676;2023-02-03T03:24:51;2.10;99.90
37086;DHT22;23001;45.952;12.676;2023-02-03T03:27:23;2.20;99.90
37086;DHT22;23001;45.952;12.676;2023-02-03T03:29:59;2.10;99.90
37086;DHT22;23001;45.952;12.676;2023-02-03T03:32:26;2.10;99.90
37086;DHT22;23001;45.952;12.676;2023-02-03T03:34:55;2.10;99.90
37086;DHT22;23001;45.952;12.676;2023-02-03T03:37:54;2.10;99.90
37086;DHT22;23001;45.952;12.676;2023-02-03T03:43:10;2.00;99.90
37086;DHT22;23001;45.952;12.676;2023-02-03T03:45:51;2.00;99.90
37086;DHT22;23001;45.952;12.676;2023-02-03T03:51:24;1.80;99.90
37086;DHT22;23001;45.952;12.676;2023-02-03T03:53:51;1.90;99.90
37086;DHT22;23001;45.952;12.676;2023-02-03T03:56:40;1.80;99.90
37086;DHT22;23001;45.952;12.676;2023-02-03T03:59:09;1.90;99.90
37086;DHT22;23001;45.952;12.676;2023-02-03T04:01:36;2.00;99.90
37086;DHT22;23001;45.952;12.676;2023-02-03T04:04:07;1.90;99.90
37086;DHT22;23001;45.952;12.676;2023-02-03T04:06:33;1.90;99.90
37086;DHT22;23001;45.952;12.676;2023-02-03T04:08:59;2.00;99.90
37086;DHT22;23001;45.952;12.676;2023-02-03T04:11:26;2.10;99.90
37086;DHT22;23001;45.952;12.676;2023-02-03T04:14:10;2.10;99.90
37086;DHT22;23001;45.952;12.676;2023-02-03T04:16:36;2.10;99.90
37086;DHT22;23001;45.952;12.676;2023-02-03T04:19:02;2.10;99.90
37086;DHT22;23001;45.952;12.676;2023-02-03T04:21:28;2.10;99.90
37086;DHT22;23001;45.952;12.676;2023-02-03T04:23:54;2.10;99.90
37086;DHT22;23001;45.952;12.676;2023-02-03T04:26:21;1.90;99.90
37086;DHT22;23001;45.952;12.676;2023-02-03T04:28:47;1.80;99.90
37086;DHT22;23001;45.952;12.676;2023-02-03T04:31:12;1.90;99.90
37086;DHT22;23001;45.952;12.676;2023-02-03T04:33:38;2.00;99.90
37086;DHT22;23001;45.952;12.676;2023-02-03T04:36:04;2.00;99.90
37086;DHT22;23001;45.952;12.676;2023-02-03T04:38:30;1.90;99.90
37086;DHT22;23001;45.952;12.676;2023-02-03T04:40:57;2.00;99.90
37086;DHT22;23001;45.952;12.676;2023-02-03T04:43:23;1.90;99.90
37086;DHT22;23001;45.952;12.676;2023-02-03T04:45:49;1.90;99.90
37086;DHT22;23001;45.952;12.676;2023-02-03T04:48:15;1.90;99.90
37086;DHT22;23001;45.952;12.676;2023-02-03T04:50:40;1.80;99.90
37086;DHT22;23001;45.952;12.676;2023-02-03T04:53:06;1.80;99.90
37086;DHT22;23001;45.952;12.676;2023-02-03T04:55:32;1.90;99.90
37086;DHT22;23001;45.952;12.676;2023-02-03T04:57:58;1.90;99.90
37086;DHT22;23001;45.952;12.676;2023-02-03T05:00:25;1.90;99.90
37086;DHT22;23001;45.952;12.676;2023-02-03T05:02:51;1.80;99.90
37086;DHT22;23001;45.952;12.676;2023-02-03T05:05:18;1.70;99.90
37086;DHT22;23001;45.952;12.676;2023-02-03T05:07:44;1.80;99.90
37086;DHT22;23001;45.952;12.676;2023-02-03T05:10:10;1.70;99.90
37086;DHT22;23001;45.952;12.676;2023-02-03T05:12:35;1.70;99.90
37086;DHT22;23001;45.952;12.676;2023-02-03T05:15:01;1.70;99.90
37086;DHT22;23001;45.952;12.676;2023-02-03T05:17:27;1.80;99.90
37086;DHT22;23001;45.952;12.676;2023-02-03T05:19:52;1.80;99.90
37086;DHT22;23001;45.952;12.676;2023-02-03T05:22:18;1.80;99.90
37086;DHT22;23001;45.952;12.676;2023-02-03T05:24:44;1.80;99.90
37086;DHT22;23001;45.952;12.676;2023-02-03T05:27:09;1.80;99.90
37086;DHT22;23001;45.952;12.676;2023-02-03T05:29:35;1.70;99.90
37086;DHT22;23001;45.952;12.676;2023-02-03T05:32:01;1.80;99.90
37086;DHT22;23001;45.952;12.676;2023-02-03T05:34:26;1.70;99.90
37086;DHT22;23001;45.952;12.676;2023-02-03T05:36:52;1.60;99.90
37086;DHT22;23001;45.952;12.676;2023-02-03T05:39:18;1.60;99.90
37086;DHT22;23001;45.952;12.676;2023-02-03T05:41:43;1.60;99.90
37086;DHT22;23001;45.952;12.676;2023-02-03T05:44:19;1.60;99.90
37086;DHT22;23001;45.952;12.676;2023-02-03T05:46:45;1.60;99.90
37086;DHT22;23001;45.952;12.676;2023-02-03T05:49:11;1.50;99.90
37086;DHT22;23001;45.952;12.676;2023-02-03T05:51:37;1.60;99.90
37086;DHT22;23001;45.952;12.676;2023-02-03T05:54:04;1.60;99.90
37086;DHT22;23001;45.952;12.676;2023-02-03T05:56:29;1.60;99.90
37086;DHT22;23001;45.952;12.676;2023-02-03T05:58:55;1.50;99.90
37086;DHT22;23001;45.952;12.676;2023-02-03T06:01:21;1.40;99.90
37086;DHT22;23001;45.952;12.676;2023-02-03T06:03:47;1.40;99.90
37086;DHT22;23001;45.952;12.676;2023-02-03T06:06:13;1.30;99.90
37086;DHT22;23001;45.952;12.676;2023-02-03T06:08:39;1.20;99.90
37086;DHT22;23001;45.952;12.676;2023-02-03T06:11:05;1.20;99.90
37086;DHT22;23001;45.952;12.676;2023-02-03T06:13:30;1.10;99.90
37086;DHT22;23001;45.952;12.676;2023-02-03T06:15:56;1.10;99.90
37086;DHT22;23001;45.952;12.676;2023-02-03T06:18:22;1.10;99.90
37086;DHT22;23001;45.952;12.676;2023-02-03T06:20:48;1.10;99.90
37086;DHT22;23001;45.952;12.676;2023-02-03T06:23:14;1.10;99.90
37086;DHT22;23001;45.952;12.676;2023-02-03T06:25:41;1.20;99.90
37086;DHT22;23001;45.952;12.676;2023-02-03T06:28:07;1.20;99.90
37086;DHT22;23001;45.952;12.676;2023-02-03T06:30:33;1.30;99.90
37086;DHT22;23001;45.952;12.676;2023-02-03T06:32:58;1.40;99.90
37086;DHT22;23001;45.952;12.676;2023-02-03T06:35:24;1.50;99.90
37086;DHT22;23001;45.952;12.676;2023-02-03T06:37:50;1.60;99.90
37086;DHT22;23001;45.952;12.676;2023-02-03T06:40:16;1.60;99.90
37086;DHT22;23001;45.952;12.676;2023-02-03T06:42:48;1.60;99.90
37086;DHT22;23001;45.952;12.676;2023-02-03T06:45:15;1.50;99.90
37086;DHT22;23001;45.952;12.676;2023-02-03T06:47:42;1.50;99.90
37086;DHT22;23001;45.952;12.676;2023-02-03T06:50:10;1.50;99.90
37086;DHT22;23001;45.952;12.676;2023-02-03T06:52:36;1.50;99.90
37086;DHT22;23001;45.952;12.676;2023-02-03T06:55:03;1.50;99.90
37086;DHT22;23001;45.952;12.676;2023-02-03T06:57:29;1.60;99.90
37086;DHT22;23001;45.952;12.676;2023-02-03T06:59:55;1.60;99.90
37086;DHT22;23001;45.952;12.676;2023-02-03T07:02:20;1.70;99.90
37086;DHT22;23001;45.952;12.676;2023-02-03T07:04:46;1.70;99.90
37086;DHT22;23001;45.952;12.676;2023-02-03T07:07:12;1.70;99.90
37086;DHT22;23001;45.952;12.676;2023-02-03T07:09:39;1.80;99.90
37086;DHT22;23001;45.952;12.676;2023-02-03T07:12:05;1.80;99.90
37086;DHT22;23001;45.952;12.676;2023-02-03T07:14:32;1.90;99.90
37086;DHT22;23001;45.952;12.676;2023-02-03T07:17:01;1.90;99.90
37086;DHT22;23001;45.952;12.676;2023-02-03T07:19:27;2.00;99.90
37086;DHT22;23001;45.952;12.676;2023-02-03T07:21:52;2.00;99.90
37086;DHT22;23001;45.952;12.676;2023-02-03T07:24:18;2.10;99.90
37086;DHT22;23001;45.952;12.676;2023-02-03T07:26:44;2.20;99.90
37086;DHT22;23001;45.952;12.676;2023-02-03T07:29:09;2.20;99.90
37086;DHT22;23001;45.952;12.676;2023-02-03T07:31:35;2.20;99.90
37086;DHT22;23001;45.952;12.676;2023-02-03T07:34:02;2.10;99.90
37086;DHT22;23001;45.952;12.676;2023-02-03T07:36:28;2.20;99.90
37086;DHT22;23001;45.952;12.676;2023-02-03T07:38:54;2.20;99.90
37086;DHT22;23001;45.952;12.676;2023-02-03T07:41:20;2.30;99.90
37086;DHT22;23001;45.952;12.676;2023-02-03T07:43:45;2.30;99.90
37086;DHT22;23001;45.952;12.676;2023-02-03T07:46:11;2.40;99.90
37086;DHT22;23001;45.952;12.676;2023-02-03T07:48:37;2.40;99.90
37086;DHT22;23001;45.952;12.676;2023-02-03T07:51:03;2.50;99.90
37086;DHT22;23001;45.952;12.676;2023-02-03T07:53:29;2.40;99.90
37086;DHT22;23001;45.952;12.676;2023-02-03T07:56:01;2.40;99.90
37086;DHT22;23001;45.952;12.676;2023-02-03T07:58:27;2.50;99.90
37086;DHT22;23001;45.952;12.676;2023-02-03T08:00:53;2.60;99.90
37086;DHT22;23001;45.952;12.676;2023-02-03T08:03:19;2.70;99.90
37086;DHT22;23001;45.952;12.676;2023-02-03T08:05:45;2.70;99.90
37086;DHT22;23001;45.952;12.676;2023-02-03T08:08:11;2.70;99.90
37086;DHT22;23001;45.952;12.676;2023-02-03T08:10:37;2.70;99.90
37086;DHT22;23001;45.952;12.676;2023-02-03T08:13:02;2.70;99.90
37086;DHT22;23001;45.952;12.676;2023-02-03T08:15:28;2.80;99.90
37086;DHT22;23001;45.952;12.676;2023-02-03T08:17:54;2.80;99.90
37086;DHT22;23001;45.952;12.676;2023-02-03T08:20:20;2.90;99.90
37086;DHT22;23001;45.952;12.676;2023-02-03T08:22:45;3.00;99.90
37086;DHT22;23001;45.952;12.676;2023-02-03T08:25:11;3.00;99.90
37086;DHT22;23001;45.952;12.676;2023-02-03T08:27:37;3.10;99.90
37086;DHT22;23001;45.952;12.676;2023-02-03T08:30:04;3.20;99.90
37086;DHT22;23001;45.952;12.676;2023-02-03T08:32:31;3.30;99.90
37086;DHT22;23001;45.952;12.676;2023-02-03T08:34:57;3.40;99.90
37086;DHT22;23001;45.952;12.676;2023-02-03T08:37:23;3.50;99.90
37086;DHT22;23001;45.952;12.676;2023-02-03T08:39:50;3.70;99.90
37086;DHT22;23001;45.952;12.676;2023-02-03T08:42:16;3.80;99.90
37086;DHT22;23001;45.952;12.676;2023-02-03T08:44:42;3.90;99.90
37086;DHT22;23001;45.952;12.676;2023-02-03T08:47:08;4.10;99.90
37086;DHT22;23001;45.952;12.676;2023-02-03T08:49:34;4.20;99.90
37086;DHT22;23001;45.952;12.676;2023-02-03T08:52:00;4.30;99.90
37086;DHT22;23001;45.952;12.676;2023-02-03T08:54:26;4.40;99.90
37086;DHT22;23001;45.952;12.676;2023-02-03T08:56:52;4.40;99.90
37086;DHT22;23001;45.952;12.676;2023-02-03T08:59:18;4.50;99.90
37086;DHT22;23001;45.952;12.676;2023-02-03T09:01:43;4.60;99.90
37086;DHT22;23001;45.952;12.676;2023-02-03T09:04:11;4.70;99.90
37086;DHT22;23001;45.952;12.676;2023-02-03T09:06:37;4.70;99.90
37086;DHT22;23001;45.952;12.676;2023-02-03T09:09:03;4.80;99.90
37086;DHT22;23001;45.952;12.676;2023-02-03T09:11:29;5.00;99.90
37086;DHT22;23001;45.952;12.676;2023-02-03T09:13:55;5.00;99.90
37086;DHT22;23001;45.952;12.676;2023-02-03T09:16:22;5.10;99.90
37086;DHT22;23001;45.952;12.676;2023-02-03T09:18:48;5.20;99.90
37086;DHT22;23001;45.952;12.676;2023-02-03T09:21:15;5.30;99.90
37086;DHT22;23001;45.952;12.676;2023-02-03T09:23:42;5.40;99.90
37086;DHT22;23001;45.952;12.676;2023-02-03T09:26:10;5.50;99.90
37086;DHT22;23001;45.952;12.676;2023-02-03T09:28:36;5.50;99.90
37086;DHT22;23001;45.952;12.676;2023-02-03T09:31:04;5.70;99.90
37086;DHT22;23001;45.952;12.676;2023-02-03T09:33:30;5.70;99.90
37086;DHT22;23001;45.952;12.676;2023-02-03T09:35:57;5.80;99.90
37086;DHT22;23001;45.952;12.676;2023-02-03T09:38:23;6.00;99.90
37086;DHT22;23001;45.952;12.676;2023-02-03T09:40:53;6.10;99.90
37086;DHT22;23001;45.952;12.676;2023-02-03T09:45:45;6.20;99.90
37086;DHT22;23001;45.952;12.676;2023-02-03T09:48:22;6.30;99.90
37086;DHT22;23001;45.952;12.676;2023-02-03T09:50:49;6.40;99.90
37086;DHT22;23001;45.952;12.676;2023-02-03T09:53:29;6.50;99.90
37086;DHT22;23001;45.952;12.676;2023-02-03T09:55:57;6.70;99.90
37086;DHT22;23001;45.952;12.676;2023-02-03T09:58:24;6.90;99.90
37086;DHT22;23001;45.952;12.676;2023-02-03T10:00:59;7.00;99.90
37086;DHT22;23001;45.952;12.676;2023-02-03T10:03:50;7.10;99.90
37086;DHT22;23001;45.952;12.676;2023-02-03T10:12:19;7.30;99.90
37086;DHT22;23001;45.952;12.676;2023-02-03T10:22:57;7.40;99.90
37086;DHT22;23001;45.952;12.676;2023-02-03T10:27:58;7.50;99.90
37086;DHT22;23001;45.952;12.676;2023-02-03T10:30:27;7.60;99.90
37086;DHT22;23001;45.952;12.676;2023-02-03T10:33:17;7.60;99.90
37086;DHT22;23001;45.952;12.676;2023-02-03T10:38:16;7.70;99.90
37086;DHT22;23001;45.952;12.676;2023-02-03T10:40:43;7.90;99.90
37086;DHT22;23001;45.952;12.676;2023-02-03T10:43:10;7.90;99.90
37086;DHT22;23001;45.952;12.676;2023-02-03T10:45:54;7.80;99.90
37086;DHT22;23001;45.952;12.676;2023-02-03T10:48:21;7.80;99.90
37086;DHT22;23001;45.952;12.676;2023-02-03T10:50:48;7.90;99.90
37086;DHT22;23001;45.952;12.676;2023-02-03T10:55:44;8.00;99.90
37086;DHT22;23001;45.952;12.676;2023-02-03T10:58:18;8.10;99.90
37086;DHT22;23001;45.952;12.676;2023-02-03T11:00:53;8.10;99.90
37086;DHT22;23001;45.952;12.676;2023-02-03T11:03:25;8.20;99.90
37086;DHT22;23001;45.952;12.676;2023-02-03T11:06:04;8.10;99.90
37086;DHT22;23001;45.952;12.676;2023-02-03T11:08:30;8.10;99.90
37086;DHT22;23001;45.952;12.676;2023-02-03T11:11:05;8.20;99.90
37086;DHT22;23001;45.952;12.676;2023-02-03T11:13:31;8.30;99.90
37086;DHT22;23001;45.952;12.676;2023-02-03T11:16:06;8.30;99.90
37086;DHT22;23001;45.952;12.676;2023-02-03T11:18:58;8.30;99.90
37086;DHT22;23001;45.952;12.676;2023-02-03T11:21:33;8.30;99.90
37086;DHT22;23001;45.952;12.676;2023-02-03T11:26:46;8.30;99.90
37086;DHT22;23001;45.952;12.676;2023-02-03T11:29:26;8.40;99.90
37086;DHT22;23001;45.952;12.676;2023-02-03T11:31:57;8.50;99.90
37086;DHT22;23001;45.952;12.676;2023-02-03T11:34:26;8.40;99.90
37086;DHT22;23001;45.952;12.676;2023-02-03T11:36:53;8.50;99.90
37086;DHT22;23001;45.952;12.676;2023-02-03T11:39:28;8.60;99.90
37086;DHT22;23001;45.952;12.676;2023-02-03T11:41:55;8.70;99.90
37086;DHT22;23001;45.952;12.676;2023-02-03T11:46:52;8.70;99.90
37086;DHT22;23001;45.952;12.676;2023-02-03T11:52:20;8.80;99.90
37086;DHT22;23001;45.952;12.676;2023-02-03T12:00:39;8.90;99.90
37086;DHT22;23001;45.952;12.676;2023-02-03T12:20:52;9.40;99.90
37086;DHT22;23001;45.952;12.676;2023-02-03T12:25:56;9.30;99.90
37086;DHT22;23001;45.952;12.676;2023-02-03T12:31:35;9.30;99.90
37086;DHT22;23001;45.952;12.676;2023-02-03T12:34:36;9.30;99.90
37086;DHT22;23001;45.952;12.676;2023-02-03T12:37:16;9.40;99.90
37086;DHT22;23001;45.952;12.676;2023-02-03T12:39:44;9.40;99.90
37086;DHT22;23001;45.952;12.676;2023-02-03T12:47:45;9.60;99.90
37086;DHT22;23001;45.952;12.676;2023-02-03T12:50:34;9.40;99.90
37086;DHT22;23001;45.952;12.676;2023-02-03T12:58:28;9.50;99.90
37086;DHT22;23001;45.952;12.676;2023-02-03T13:01:10;9.50;99.90
37086;DHT22;23001;45.952;12.676;2023-02-03T13:04:09;9.40;99.90
37086;DHT22;23001;45.952;12.676;2023-02-03T13:09:48;9.60;99.90
37086;DHT22;23001;45.952;12.676;2023-02-03T13:12:31;9.60;99.90
37086;DHT22;23001;45.952;12.676;2023-02-03T13:17:50;9.60;99.90
37086;DHT22;23001;45.952;12.676;2023-02-03T13:20:22;9.60;99.90
37086;DHT22;23001;45.952;12.676;2023-02-03T13:22:49;9.60;99.90
37086;DHT22;23001;45.952;12.676;2023-02-03T13:30:41;9.80;99.90
37086;DHT22;23001;45.952;12.676;2023-02-03T13:36:34;9.70;99.90
37086;DHT22;23001;45.952;12.676;2023-02-03T13:41:53;9.70;99.90
37086;DHT22;23001;45.952;12.676;2023-02-03T13:44:23;9.60;99.90
37086;DHT22;23001;45.952;12.676;2023-02-03T13:46:53;9.70;99.90
37086;DHT22;23001;45.952;12.676;2023-02-03T13:49:29;9.60;99.90
37086;DHT22;23001;45.952;12.676;2023-02-03T13:51:56;9.70;99.90
37086;DHT22;23001;45.952;12.676;2023-02-03T13:54:30;9.70;99.90
37086;DHT22;23001;45.952;12.676;2023-02-03T13:57:02;9.80;99.90
37086;DHT22;23001;45.952;12.676;2023-02-03T14:07:41;9.80;99.90
37086;DHT22;23001;45.952;12.676;2023-02-03T14:15:29;9.60;99.90
37086;DHT22;23001;45.952;12.676;2023-02-03T14:18:04;9.50;99.90
37086;DHT22;23001;45.952;12.676;2023-02-03T14:20:51;9.50;99.90
37086;DHT22;23001;45.952;12.676;2023-02-03T14:23:25;9.50;99.90
37086;DHT22;23001;45.952;12.676;2023-02-03T14:25:54;9.50;99.90
37086;DHT22;23001;45.952;12.676;2023-02-03T14:28:42;9.50;99.90
37086;DHT22;23001;45.952;12.676;2023-02-03T14:31:18;9.50;99.90
37086;DHT22;23001;45.952;12.676;2023-02-03T14:36:33;9.40;99.90
37086;DHT22;23001;45.952;12.676;2023-02-03T14:42:31;9.20;99.90
37086;DHT22;23001;45.952;12.676;2023-02-03T14:45:30;9.20;99.90
37086;DHT22;23001;45.952;12.676;2023-02-03T14:59:29;9.30;99.90
37086;DHT22;23001;45.952;12.676;2023-02-03T15:02:07;9.20;99.90
37086;DHT22;23001;45.952;12.676;2023-02-03T15:04:33;9.20;99.90
37086;DHT22;23001;45.952;12.676;2023-02-03T15:06:59;9.30;99.90
37086;DHT22;23001;45.952;12.676;2023-02-03T15:09:36;9.30;99.90
37086;DHT22;23001;45.952;12.676;2023-02-03T15:12:18;9.20;99.90
37086;DHT22;23001;45.952;12.676;2023-02-03T15:14:44;9.20;99.90
37086;DHT22;23001;45.952;12.676;2023-02-03T15:17:17;9.10;99.90
37086;DHT22;23001;45.952;12.676;2023-02-03T15:19:44;9.10;99.90
37086;DHT22;23001;45.952;12.676;2023-02-03T15:22:22;9.10;99.90
37086;DHT22;23001;45.952;12.676;2023-02-03T15:24:50;9.10;99.90
37086;DHT22;23001;45.952;12.676;2023-02-03T15:27:28;9.20;99.90
37086;DHT22;23001;45.952;12.676;2023-02-03T15:29:54;9.10;99.90
37086;DHT22;23001;45.952;12.676;2023-02-03T15:34:51;9.10;99.90
37086;DHT22;23001;45.952;12.676;2023-02-03T15:40:20;9.00;99.90
37086;DHT22;23001;45.952;12.676;2023-02-03T15:48:50;8.90;99.90
37086;DHT22;23001;45.952;12.676;2023-02-03T15:56:42;8.50;99.90
37086;DHT22;23001;45.952;12.676;2023-02-03T15:59:25;8.40;99.90
37086;DHT22;23001;45.952;12.676;2023-02-03T16:01:52;8.30;99.90
37086;DHT22;23001;45.952;12.676;2023-02-03T16:04:18;8.30;99.90
37086;DHT22;23001;45.952;12.676;2023-02-03T16:06:47;8.20;99.90
37086;DHT22;23001;45.952;12.676;2023-02-03T16:09:55;8.10;99.90
37086;DHT22;23001;45.952;12.676;2023-02-03T16:12:29;8.00;99.90
37086;DHT22;23001;45.952;12.676;2023-02-03T16:14:56;7.90;99.90
37086;DHT22;23001;45.952;12.676;2023-02-03T16:19:49;7.90;99.90
37086;DHT22;23001;45.952;12.676;2023-02-03T16:22:29;7.90;99.90
37086;DHT22;23001;45.952;12.676;2023-02-03T16:24:56;7.80;99.90
37086;DHT22;23001;45.952;12.676;2023-02-03T16:33:20;7.80;99.90
37086;DHT22;23001;45.952;12.676;2023-02-03T16:36:11;7.70;99.90
37086;DHT22;23001;45.952;12.676;2023-02-03T16:38:57;7.70;99.90
37086;DHT22;23001;45.952;12.676;2023-02-03T16:41:44;7.80;99.90
37086;DHT22;23001;45.952;12.676;2023-02-03T16:44:29;7.70;99.90
37086;DHT22;23001;45.952;12.676;2023-02-03T16:47:27;7.70;99.90
37086;DHT22;23001;45.952;12.676;2023-02-03T16:50:17;7.70;99.90
37086;DHT22;23001;45.952;12.676;2023-02-03T16:53:02;7.70;99.90
37086;DHT22;23001;45.952;12.676;2023-02-03T16:55:28;7.60;99.90
37086;DHT22;23001;45.952;12.676;2023-02-03T16:57:54;7.60;99.90
37086;DHT22;23001;45.952;12.676;2023-02-03T17:00:21;7.50;99.90
37086;DHT22;23001;45.952;12.676;2023-02-03T17:02:51;7.60;99.90
37086;DHT22;23001;45.952;12.676;2023-02-03T17:05:17;7.60;99.90
37086;DHT22;23001;45.952;12.676;2023-02-03T17:07:43;7.60;99.90
37086;DHT22;23001;45.952;12.676;2023-02-03T17:10:09;7.50;99.90
37086;DHT22;23001;45.952;12.676;2023-02-03T17:12:35;7.40;99.90
37086;DHT22;23001;45.952;12.676;2023-02-03T17:15:03;7.40;99.90
37086;DHT22;23001;45.952;12.676;2023-02-03T17:17:29;7.40;99.90
37086;DHT22;23001;45.952;12.676;2023-02-03T17:19:55;7.40;99.90
37086;DHT22;23001;45.952;12.676;2023-02-03T17:22:21;7.40;99.90
37086;DHT22;23001;45.952;12.676;2023-02-03T17:24:47;7.40;99.90
37086;DHT22;23001;45.952;12.676;2023-02-03T17:27:13;7.40;99.90
37086;DHT22;23001;45.952;12.676;2023-02-03T17:29:38;7.40;99.90
37086;DHT22;23001;45.952;12.676;2023-02-03T17:32:04;7.30;99.90
37086;DHT22;23001;45.952;12.676;2023-02-03T17:34:30;7.30;99.90
37086;DHT22;23001;45.952;12.676;2023-02-03T17:36:56;7.30;99.90
37086;DHT22;23001;45.952;12.676;2023-02-03T17:39:21;7.30;99.90
37086;DHT22;23001;45.952;12.676;2023-02-03T17:41:47;7.20;99.90
37086;DHT22;23001;45.952;12.676;2023-02-03T17:44:13;7.20;99.90
37086;DHT22;23001;45.952;12.676;2023-02-03T17:46:38;7.10;99.90
37086;DHT22;23001;45.952;12.676;2023-02-03T17:49:04;7.10;99.90
37086;DHT22;23001;45.952;12.676;2023-02-03T17:51:30;7.10;99.90
37086;DHT22;23001;45.952;12.676;2023-02-03T17:53:56;7.10;99.90
37086;DHT22;23001;45.952;12.676;2023-02-03T17:56:24;7.10;99.90
37086;DHT22;23001;45.952;12.676;2023-02-03T17:58:58;7.10;99.90
37086;DHT22;23001;45.952;12.676;2023-02-03T18:01:24;7.10;99.90
37086;DHT22;23001;45.952;12.676;2023-02-03T18:03:58;7.10;99.90
37086;DHT22;23001;45.952;12.676;2023-02-03T18:06:27;7.00;99.90
37086;DHT22;23001;45.952;12.676;2023-02-03T18:08:53;7.00;99.90
37086;DHT22;23001;45.952;12.676;2023-02-03T18:11:19;7.00;99.90
37086;DHT22;23001;45.952;12.676;2023-02-03T18:13:47;6.90;99.90
37086;DHT22;23001;45.952;12.676;2023-02-03T18:16:20;7.00;99.90
37086;DHT22;23001;45.952;12.676;2023-02-03T18:18:47;7.00;99.90
37086;DHT22;23001;45.952;12.676;2023-02-03T18:21:14;7.10;99.90
37086;DHT22;23001;45.952;12.676;2023-02-03T18:23:40;7.00;99.90
37086;DHT22;23001;45.952;12.676;2023-02-03T18:26:09;7.00;99.90
37086;DHT22;23001;45.952;12.676;2023-02-03T18:28:36;7.00;99.90
37086;DHT22;23001;45.952;12.676;2023-02-03T18:31:05;6.90;99.90
37086;DHT22;23001;45.952;12.676;2023-02-03T18:33:31;6.90;99.90
37086;DHT22;23001;45.952;12.676;2023-02-03T18:35:59;6.90;99.90
37086;DHT22;23001;45.952;12.676;2023-02-03T18:38:28;6.90;99.90
37086;DHT22;23001;45.952;12.676;2023-02-03T18:40:55;6.90;99.90